Time;durP1;ratioP1;P1;durP2;ratioP2;P2;SDS_P1;SDS_P2;PMS_P1;PMS_P2;Temp;Humidity;BMP_temperature;BMP_pressure;BME280_temperature;BME280_humidity;BME280_pressure;Samples;Min_cycle;Max_cycle;Signal;HPM_P1;HPM_P2
2023/02/08 00:00:43;;;;;;;45.92;20.23;;;;;;;-3.88;100.00;103801.53;5278282;28;20019;-76
2023/02/08 00:03:15;;;;;;;52.35;19.83;;;;;;;-3.87;100.00;103797.13;5257299;28;20099;-76
2023/02/08 00:05:45;;;;;;;51.00;20.77;;;;;;;-3.89;100.00;103802.41;5269098;28;20419;-76
2023/02/08 00:08:16;;;;;;;54.15;20.92;;;;;;;-3.91;100.00;103794.53;5275634;28;20084;-76
2023/02/08 00:10:46;;;;;;;52.65;21.65;;;;;;;-3.92;100.00;103797.13;5267592;28;20024;-76
2023/02/08 00:13:17;;;;;;;59.97;21.63;;;;;;;-3.92;100.00;103794.53;5265019;28;20084;-76
2023/02/08 00:15:48;;;;;;;55.33;21.10;;;;;;;-3.95;100.00;103798.03;5264739;28;20028;-76
2023/02/08 00:18:19;;;;;;;44.72;19.50;;;;;;;-3.96;100.00;103801.53;5277912;28;20022;-76
2023/02/08 00:20:50;;;;;;;46.67;20.08;;;;;;;-3.96;100.00;103798.03;5278789;28;20480;-75
2023/02/08 00:23:21;;;;;;;45.97;19.05;;;;;;;-3.93;100.00;103803.28;5265087;28;20107;-76
2023/02/08 00:25:51;;;;;;;59.95;20.55;;;;;;;-3.87;100.00;103802.38;5265401;28;20115;-76
2023/02/08 00:28:22;;;;;;;63.65;22.35;;;;;;;-3.84;100.00;103795.41;5264951;28;20024;-76
2023/02/08 00:30:52;;;;;;;57.40;21.40;;;;;;;-3.83;100.00;103793.66;5273707;28;20024;-76
2023/02/08 00:33:23;;;;;;;63.15;23.77;;;;;;;-3.81;100.00;103795.41;5269127;28;20027;-76
2023/02/08 00:36:09;;;;;;;61.20;23.48;;;;;;;-3.85;100.00;103801.53;5275416;28;20023;-75
2023/02/08 00:38:40;;;;;;;58.80;22.65;;;;;;;-3.93;100.00;103798.03;5265806;28;20032;-76
2023/02/08 00:41:10;;;;;;;57.40;21.63;;;;;;;-3.99;100.00;103793.66;5278172;28;20049;-76
2023/02/08 00:43:41;;;;;;;53.75;21.98;;;;;;;-4.05;100.00;103787.56;5272274;28;20032;-76
2023/02/08 00:46:11;;;;;;;60.65;22.67;;;;;;;-4.05;100.00;103792.81;5270835;28;20085;-76
2023/02/08 00:48:42;;;;;;;60.45;24.13;;;;;;;-4.05;100.00;103792.81;5272849;28;20468;-76
2023/02/08 00:51:14;;;;;;;57.85;23.13;;;;;;;-4.02;100.00;103796.28;5269570;28;20434;-76
2023/02/08 00:53:45;;;;;;;52.17;22.13;;;;;;;-3.98;100.00;103794.53;5264855;28;20107;-76
2023/02/08 00:56:16;;;;;;;57.53;22.48;;;;;;;-3.97;100.00;103796.28;5278340;28;20027;-75
2023/02/08 00:58:46;;;;;;;53.05;22.20;;;;;;;-3.97;100.00;103793.66;5275423;28;20537;-76
2023/02/08 01:01:17;;;;;;;55.72;23.80;;;;;;;-4.00;100.00;103788.44;5264619;28;20016;-76
2023/02/08 01:03:48;;;;;;;50.95;21.33;;;;;;;-4.06;100.00;103796.31;5264497;28;20024;-76
2023/02/08 01:06:19;;;;;;;55.03;21.85;;;;;;;-4.11;100.00;103798.06;5272636;28;20461;-76
2023/02/08 01:08:50;;;;;;;51.95;21.30;;;;;;;-4.15;100.00;103801.53;5285234;28;20023;-76
2023/02/08 01:11:24;;;;;;;50.60;21.40;;;;;;;-4.24;100.00;103798.03;5276880;28;20103;-76
2023/02/08 01:13:57;;;;;;;56.88;21.95;;;;;;;-4.27;100.00;103802.38;5267805;28;20016;-76
2023/02/08 01:16:30;;;;;;;54.35;21.77;;;;;;;-4.29;100.00;103804.16;5285520;28;20072;-75
2023/02/08 01:19:03;;;;;;;60.55;21.77;;;;;;;-4.30;100.00;103805.91;5266350;28;20109;-76
2023/02/08 01:21:37;;;;;;;56.05;21.20;;;;;;;-4.34;100.00;103801.50;5264595;28;20100;-76
2023/02/08 01:24:07;;;;;;;55.45;21.10;;;;;;;-4.38;100.00;103802.38;5285391;28;20034;-76
2023/02/08 01:26:38;;;;;;;54.95;21.83;;;;;;;-4.42;100.00;103805.88;5273452;28;20396;-76
2023/02/08 01:29:09;;;;;;;51.38;20.52;;;;;;;-4.49;100.00;103798.88;5276076;28;20437;-76
2023/02/08 01:31:41;;;;;;;46.40;21.42;;;;;;;-4.54;100.00;103806.72;5287017;28;20024;-76
2023/02/08 01:34:12;;;;;;;54.95;21.98;;;;;;;-4.56;100.00;103805.88;5268412;28;20381;-75
2023/02/08 01:36:42;;;;;;;63.97;24.70;;;;;;;-4.60;100.00;103804.09;5268012;28;20024;-75
2023/02/08 01:39:13;;;;;;;63.63;24.02;;;;;;;-4.61;100.00;103807.59;5268137;28;20477;-75
2023/02/08 01:41:45;;;;;;;66.32;25.45;;;;;;;-4.61;100.00;103810.22;5272303;28;20380;-75
2023/02/08 01:44:16;;;;;;;64.38;23.60;;;;;;;-4.61;100.00;103809.34;5289238;28;20019;-75
2023/02/08 01:46:50;;;;;;;61.65;24.25;;;;;;;-4.62;100.00;103805.81;5288596;28;20393;-75
2023/02/08 01:49:39;;;;;;;61.78;23.30;;;;;;;-4.60;100.00;103804.09;5277241;28;20089;-75
2023/02/08 01:52:16;;;;;;;65.88;23.30;;;;;;;-4.60;100.00;103798.88;5287349;28;20069;-75
2023/02/08 01:54:51;;;;;;;53.78;22.00;;;;;;;-4.60;100.00;103806.72;5283563;28;20039;-75
2023/02/08 01:57:23;;;;;;;65.95;23.55;;;;;;;-4.59;100.00;103794.50;5279877;28;20444;-75
2023/02/08 02:00:00;;;;;;;60.78;23.15;;;;;;;-4.59;100.00;103789.25;5267488;28;20021;-75
2023/02/08 02:02:30;;;;;;;66.25;24.73;;;;;;;-4.59;100.00;103797.97;5267777;28;20196;-75
2023/02/08 02:05:02;;;;;;;58.75;24.50;;;;;;;-4.62;100.00;103790.09;5278554;28;20110;-75
2023/02/08 02:07:35;;;;;;;62.63;24.13;;;;;;;-4.65;100.00;103797.97;5283638;28;20024;-76
2023/02/08 02:10:27;;;;;;;56.40;23.67;;;;;;;-4.70;100.00;103797.97;5279591;28;20023;-76
2023/02/08 02:13:05;;;;;;;62.97;24.85;;;;;;;-4.72;100.00;103793.56;5267350;28;20111;-76
2023/02/08 02:15:54;;;;;;;63.30;23.67;;;;;;;-4.77;100.00;103792.69;5265464;28;20028;-76
2023/02/08 02:18:29;;;;;;;56.03;22.35;;;;;;;-4.79;100.00;103797.06;5280657;28;20185;-76
2023/02/08 02:21:27;;;;;;;55.33;21.77;;;;;;;-4.77;100.00;103797.94;5251942;28;20119;-76
2023/02/08 02:24:33;;;;;;;62.95;22.52;;;;;;;-4.69;100.00;103784.00;5275370;28;20418;-75
2023/02/08 02:27:31;;;;;;;59.10;21.98;;;;;;;-4.69;100.00;103783.13;5273417;28;20227;-76
2023/02/08 02:30:40;;;;;;;56.65;22.75;;;;;;;-4.69;100.00;103788.34;5253083;28;20036;-76
2023/02/08 02:33:34;;;;;;;53.60;22.17;;;;;;;-4.72;100.00;103783.09;5262587;28;20107;-76
2023/02/08 02:36:18;;;;;;;54.88;21.33;;;;;;;-4.76;100.00;103781.38;5267294;28;20040;-76
2023/02/08 02:39:24;;;;;;;57.28;22.23;;;;;;;-4.76;100.00;103770.91;5275635;28;20030;-76
2023/02/08 02:45:36;;;;;;;62.25;23.15;;;;;;;-4.79;100.00;103763.00;5273928;28;20034;-76
2023/02/08 02:48:26;;;;;;;72.53;26.83;;;;;;;-4.79;100.00;103766.50;5281919;28;20458;-76
2023/02/08 02:51:05;;;;;;;74.35;26.55;;;;;;;-4.75;100.00;103767.41;5282637;28;20051;-76
2023/02/08 02:53:58;;;;;;;61.30;24.05;;;;;;;-4.73;100.00;103765.63;5259044;28;20282;-76
2023/02/08 02:56:34;;;;;;;57.33;23.40;;;;;;;-4.78;100.00;103760.38;5266445;28;20024;-76
2023/02/08 02:59:07;;;;;;;59.65;23.20;;;;;;;-4.83;100.00;103763.88;5266924;28;20027;-75
2023/02/08 03:01:39;;;;;;;58.42;22.95;;;;;;;-4.88;100.00;103762.97;5277115;28;20032;-76
2023/02/08 03:04:44;;;;;;;61.00;24.10;;;;;;;-4.92;100.00;103761.22;5269561;28;20034;-76
2023/02/08 03:07:33;;;;;;;61.70;23.65;;;;;;;-4.95;100.00;103762.09;5281271;28;20069;-76
2023/02/08 03:10:32;;;;;;;63.67;22.25;;;;;;;-4.98;100.00;103760.34;5275327;28;20562;-76
2023/02/08 03:13:08;;;;;;;48.45;21.10;;;;;;;-5.00;100.00;103771.69;5248964;28;20487;-76
2023/02/08 03:15:50;;;;;;;59.80;22.13;;;;;;;-5.03;100.00;103766.44;5283732;28;20056;-76
2023/02/08 03:18:39;;;;;;;56.55;22.25;;;;;;;-5.05;100.00;103757.72;5273991;28;20074;-76
2023/02/08 03:21:19;;;;;;;53.10;21.55;;;;;;;-5.06;100.00;103766.44;5266566;28;20031;-76
2023/02/08 03:24:10;;;;;;;59.15;22.00;;;;;;;-5.13;100.00;103760.28;5279441;28;20052;-76
2023/02/08 03:26:48;;;;;;;58.90;21.85;;;;;;;-5.18;100.00;103761.13;5247668;28;20036;-76
2023/02/08 03:29:30;;;;;;;57.55;22.13;;;;;;;-5.21;100.00;103767.25;5266719;28;20027;-76
2023/02/08 03:32:23;;;;;;;60.90;22.75;;;;;;;-5.25;100.00;103771.59;5265556;28;20024;-76
2023/02/08 03:34:59;;;;;;;57.83;21.35;;;;;;;-5.29;100.00;103771.56;5265893;28;20103;-75
2023/02/08 03:37:36;;;;;;;59.70;24.08;;;;;;;-5.32;100.00;103769.81;5265920;28;20040;-76
2023/02/08 03:40:15;;;;;;;60.47;22.40;;;;;;;-5.33;100.00;103769.81;5265393;28;20152;-76
2023/02/08 03:42:49;;;;;;;55.22;20.58;;;;;;;-5.37;100.00;103765.41;5265563;28;20032;-76
2023/02/08 03:45:27;;;;;;;59.30;22.80;;;;;;;-5.40;100.00;103762.81;5265774;28;20031;-76
2023/02/08 03:48:00;;;;;;;55.03;22.42;;;;;;;-5.44;100.00;103764.53;5265199;28;20479;-76
2023/02/08 03:50:35;;;;;;;54.65;22.30;;;;;;;-5.44;100.00;103763.66;5265518;28;20023;-75
2023/02/08 03:53:08;;;;;;;58.03;23.15;;;;;;;-5.45;100.00;103772.38;5269989;28;20064;-76
2023/02/08 03:55:40;;;;;;;59.00;23.15;;;;;;;-5.47;100.00;103767.13;5268569;28;20020;-76
2023/02/08 03:58:20;;;;;;;61.78;23.10;;;;;;;-5.50;100.00;103770.59;5272648;28;20042;-76
2023/02/08 04:00:56;;;;;;;50.45;22.23;;;;;;;-5.56;100.00;103761.84;5273578;28;20062;-79
2023/02/08 04:03:29;;;;;;;52.47;22.13;;;;;;;-5.63;100.00;103762.66;5286652;27;20125;-76
2023/02/08 04:06:00;;;;;;;61.33;22.05;;;;;;;-5.64;100.00;103761.78;5267184;28;20416;-76
2023/02/08 04:08:30;;;;;;;68.00;25.10;;;;;;;-5.64;100.00;103761.78;5277105;28;20023;-76
2023/02/08 04:11:01;;;;;;;65.45;25.80;;;;;;;-5.59;100.00;103765.31;5271497;28;20031;-76
2023/02/08 04:13:31;;;;;;;64.35;25.70;;;;;;;-5.52;100.00;103769.72;5272526;28;20034;-76
2023/02/08 04:16:02;;;;;;;65.25;24.02;;;;;;;-5.49;100.00;103774.09;5264335;28;20546;-76
2023/02/08 04:18:33;;;;;;;65.97;24.67;;;;;;;-5.47;100.00;103773.25;5263997;28;20115;-75
2023/02/08 04:21:04;;;;;;;61.30;24.08;;;;;;;-5.49;100.00;103766.25;5265021;28;20380;-75
2023/02/08 04:23:34;;;;;;;64.05;23.98;;;;;;;-5.49;100.00;103776.69;5246739;28;20032;-75
2023/02/08 04:26:07;;;;;;;61.38;23.65;;;;;;;-5.45;100.00;103769.75;5264811;28;20016;-76
2023/02/08 04:28:37;;;;;;;66.15;24.88;;;;;;;-5.47;100.00;103764.53;5264442;28;20507;-76
2023/02/08 04:31:08;;;;;;;59.22;22.55;;;;;;;-5.50;100.00;103762.75;5276028;28;20020;-76
2023/02/08 04:33:38;;;;;;;59.53;22.65;;;;;;;-5.50;100.00;103761.88;5272198;28;20085;-76
2023/02/08 04:36:09;;;;;;;57.35;24.02;;;;;;;-5.49;100.00;103750.53;5272952;28;20031;-76
2023/02/08 04:38:40;;;;;;;58.53;24.73;;;;;;;-5.42;100.00;103748.81;5270634;28;20024;-76
2023/02/08 04:41:10;;;;;;;61.17;24.02;;;;;;;-5.40;100.00;103744.50;5271576;28;20350;-75
2023/02/08 04:43:41;;;;;;;65.40;24.17;;;;;;;-5.42;100.00;103754.06;5277460;28;20378;-76
2023/02/08 04:46:11;;;;;;;61.85;24.48;;;;;;;-5.45;100.00;103751.44;5264083;28;20344;-76
2023/02/08 04:48:42;;;;;;;65.97;24.05;;;;;;;-5.49;100.00;103746.19;5264320;28;20102;-76
2023/02/08 04:51:12;;;;;;;68.30;23.20;;;;;;;-5.50;100.00;103744.44;5264044;28;21192;-76
2023/02/08 04:53:43;;;;;;;61.83;24.42;;;;;;;-5.51;100.00;103749.66;5264710;28;20026;-76
2023/02/08 04:56:13;;;;;;;62.75;24.40;;;;;;;-5.51;100.00;103757.53;5278135;28;20034;-76
2023/02/08 04:58:44;;;;;;;71.22;22.45;;;;;;;-5.53;100.00;103757.50;5275602;28;20012;-76
2023/02/08 05:01:15;;;;;;;53.38;22.13;;;;;;;-5.55;100.00;103745.28;5287457;28;20023;-76
2023/02/08 05:03:46;;;;;;;54.63;22.92;;;;;;;-5.53;100.00;103740.91;5257901;28;20052;-76
2023/02/08 05:06:16;;;;;;;62.10;24.38;;;;;;;-5.51;100.00;103742.69;5275088;28;20062;-76
2023/02/08 05:08:47;;;;;;;68.80;24.33;;;;;;;-5.51;100.00;103737.47;5275044;28;20499;-76
2023/02/08 05:11:21;;;;;;;68.72;25.05;;;;;;;-5.52;100.00;103735.72;5268038;28;20078;-76
2023/02/08 05:13:52;;;;;;;61.92;23.05;;;;;;;-5.53;100.00;103739.19;5284636;28;20289;-75
2023/02/08 05:16:22;;;;;;;59.22;22.02;;;;;;;-5.55;100.00;103746.16;5260292;28;20101;-76
2023/02/08 05:18:55;;;;;;;64.60;23.27;;;;;;;-5.57;100.00;103740.06;5272263;28;20023;-76
2023/02/08 05:21:25;;;;;;;53.42;21.20;;;;;;;-5.60;100.00;103755.72;5289191;28;20019;-76
2023/02/08 05:23:56;;;;;;;54.45;21.30;;;;;;;-5.62;100.00;103754.84;5257288;28;20050;-76
2023/02/08 05:26:26;;;;;;;60.13;21.60;;;;;;;-5.63;100.00;103762.66;5289239;28;20371;-76
2023/02/08 05:28:57;;;;;;;55.70;21.38;;;;;;;-5.67;100.00;103750.44;5268192;28;20442;-76
2023/02/08 05:31:28;;;;;;;59.63;21.83;;;;;;;-5.69;100.00;103760.91;5268173;28;20130;-76
2023/02/08 05:33:58;;;;;;;56.03;22.25;;;;;;;-5.74;100.00;103755.63;5281272;28;20103;-76
2023/02/08 05:36:29;;;;;;;56.92;22.40;;;;;;;-5.80;100.00;103753.00;5282866;28;20020;-76
2023/02/08 05:38:59;;;;;;;55.63;21.40;;;;;;;-5.83;100.00;103754.69;5279859;28;20024;-76
2023/02/08 05:41:30;;;;;;;55.97;23.10;;;;;;;-5.86;100.00;103752.97;5262713;28;20031;-76
2023/02/08 05:44:00;;;;;;;61.38;24.80;;;;;;;-5.85;100.00;103751.22;5268125;28;20389;-76
2023/02/08 05:46:31;;;;;;;62.67;23.33;;;;;;;-5.83;100.00;103752.09;5280678;28;20016;-76
2023/02/08 05:49:01;;;;;;;65.00;23.63;;;;;;;-5.80;100.00;103749.50;5250068;28;20537;-76
2023/02/08 05:51:32;;;;;;;60.60;23.35;;;;;;;-5.79;100.00;103746.00;5273127;28;20031;-76
2023/02/08 05:54:03;;;;;;;64.82;23.90;;;;;;;-5.79;100.00;103743.41;5289041;28;20031;-76
2023/02/08 05:56:33;;;;;;;64.00;24.00;;;;;;;-5.81;100.00;103747.75;5274333;28;20020;-76
2023/02/08 05:59:04;;;;;;;57.72;22.02;;;;;;;-5.84;100.00;103745.97;5273710;28;20093;-76
2023/02/08 06:01:34;;;;;;;64.68;23.00;;;;;;;-5.82;100.00;103749.50;5262166;28;20028;-76
2023/02/08 06:04:05;;;;;;;61.00;22.25;;;;;;;-5.80;100.00;103746.88;5267276;28;20016;-76
2023/02/08 06:06:35;;;;;;;59.80;23.02;;;;;;;-5.80;100.00;103755.59;5249261;28;20031;-76
2023/02/08 06:09:06;;;;;;;62.50;23.77;;;;;;;-5.79;100.00;103748.63;5263221;28;20032;-76
2023/02/08 06:11:36;;;;;;;52.13;22.27;;;;;;;-5.84;100.00;103747.72;5277265;28;20020;-76
2023/02/08 06:14:06;;;;;;;62.55;22.50;;;;;;;-5.88;100.00;103761.63;5269949;28;20023;-76
2023/02/08 06:16:37;;;;;;;61.22;22.95;;;;;;;-5.92;100.00;103755.56;5266625;28;20024;-76
2023/02/08 06:19:07;;;;;;;53.00;21.90;;;;;;;-5.93;100.00;103747.69;5273115;28;20019;-76
2023/02/08 06:21:38;;;;;;;58.72;21.92;;;;;;;-5.98;100.00;103747.66;5274761;28;20119;-76
2023/02/08 06:24:10;;;;;;;55.63;21.60;;;;;;;-5.99;100.00;103748.53;5266877;28;20098;-76
2023/02/08 06:26:40;;;;;;;58.38;22.50;;;;;;;-6.01;100.00;103748.53;5280234;28;20038;-76
2023/02/08 06:29:11;;;;;;;58.45;23.15;;;;;;;-5.98;100.00;103741.56;5266535;28;20024;-76
2023/02/08 06:31:41;;;;;;;64.85;21.85;;;;;;;-6.00;100.00;103745.03;5282702;28;20024;-76
2023/02/08 06:34:12;;;;;;;64.60;23.00;;;;;;;-6.02;100.00;103746.78;5288098;28;20019;-75
2023/02/08 06:36:44;;;;;;;55.38;23.05;;;;;;;-6.01;100.00;103748.53;5270146;28;20119;-76
2023/02/08 06:39:14;;;;;;;57.13;21.88;;;;;;;-6.01;100.00;103745.03;5266870;28;20020;-76
2023/02/08 06:41:45;;;;;;;59.38;22.00;;;;;;;-6.01;100.00;103751.16;5265859;28;20024;-76
2023/02/08 06:44:15;;;;;;;60.58;22.35;;;;;;;-6.04;100.00;103745.88;5266894;28;20020;-76
2023/02/08 06:46:46;;;;;;;54.40;22.17;;;;;;;-6.06;100.00;103754.59;5248311;28;20028;-76
2023/02/08 06:49:16;;;;;;;64.43;23.17;;;;;;;-6.09;100.00;103755.44;5266650;28;20020;-76
2023/02/08 06:51:46;;;;;;;56.47;22.50;;;;;;;-6.12;100.00;103755.44;5266624;28;20085;-76
2023/02/08 06:54:17;;;;;;;57.30;22.95;;;;;;;-6.16;100.00;103758.88;5266187;28;20290;-76
2023/02/08 06:56:47;;;;;;;56.78;22.15;;;;;;;-6.20;100.00;103762.31;5275457;28;20023;-77
2023/02/08 06:59:18;;;;;;;55.67;21.52;;;;;;;-6.23;100.00;103759.66;5283366;28;20020;-76
2023/02/08 07:01:48;;;;;;;60.13;22.95;;;;;;;-6.24;100.00;103765.75;5231572;28;20028;-76
2023/02/08 07:04:19;;;;;;;63.50;23.13;;;;;;;-6.23;100.00;103764.03;5266243;28;20536;-76
2023/02/08 07:06:49;;;;;;;56.53;22.98;;;;;;;-6.21;100.00;103763.19;5274715;28;20237;-77
2023/02/08 07:09:20;;;;;;;58.15;22.63;;;;;;;-6.16;100.00;103758.00;5266419;28;20028;-77
2023/02/08 07:11:50;;;;;;;58.53;23.65;;;;;;;-6.11;100.00;103754.56;5265856;28;20555;-77
2023/02/08 07:14:21;;;;;;;55.03;22.33;;;;;;;-6.05;100.00;103757.22;5273072;28;20024;-74
2023/02/08 07:16:51;;;;;;;60.88;22.63;;;;;;;-6.01;100.00;103756.38;5273181;28;20110;-73
2023/02/08 07:19:22;;;;;;;65.32;22.85;;;;;;;-5.94;100.00;103756.41;5265865;28;20119;-74
2023/02/08 07:21:52;;;;;;;67.63;22.92;;;;;;;-5.93;100.00;103751.19;5265965;28;20153;-74
2023/02/08 07:24:23;;;;;;;70.15;24.27;;;;;;;-5.90;100.00;103755.53;5274946;28;20023;-74
2023/02/08 07:26:53;;;;;;;62.72;23.02;;;;;;;-5.89;100.00;103741.59;5252009;28;20028;-74
2023/02/08 07:29:24;;;;;;;55.15;21.58;;;;;;;-5.92;100.00;103738.97;5276434;28;20050;-74
2023/02/08 07:31:54;;;;;;;59.45;22.65;;;;;;;-5.92;100.00;103738.97;5272791;28;20192;-74
2023/02/08 07:34:29;;;;;;;62.25;23.38;;;;;;;-5.87;100.00;103734.66;5275871;28;20370;-74
2023/02/08 07:36:59;;;;;;;61.38;24.30;;;;;;;-5.81;100.00;103738.16;5265592;28;20062;-74
2023/02/08 07:39:30;;;;;;;57.67;22.63;;;;;;;-5.69;100.00;103746.94;5281118;28;20475;-74
2023/02/08 07:42:00;;;;;;;55.15;21.75;;;;;;;-5.55;100.00;103742.66;5288704;28;20107;-74
2023/02/08 07:44:31;;;;;;;72.10;24.88;;;;;;;-5.45;100.00;103754.94;5287060;28;20469;-74
2023/02/08 07:47:01;;;;;;;59.33;21.70;;;;;;;-5.33;100.00;103747.13;5278999;28;20024;-74
2023/02/08 07:49:33;;;;;;;57.10;21.90;;;;;;;-5.23;100.00;103754.13;5281140;28;20020;-74
2023/02/08 07:52:03;;;;;;;55.85;22.77;;;;;;;-5.11;100.00;103752.47;5286748;28;20137;-74
2023/02/08 07:54:34;;;;;;;64.47;24.50;;;;;;;-4.91;100.00;103749.91;5269833;28;20107;-75
2023/02/08 07:57:04;;;;;;;58.75;25.20;;;;;;;-4.65;100.00;103748.19;5265301;28;20164;-74
2023/02/08 07:59:34;;;;;;;66.75;25.58;;;;;;;-4.21;100.00;103748.22;5282086;27;20062;-74
2023/02/08 08:02:05;;;;;;;60.70;24.02;;;;;;;-3.66;100.00;103749.91;5264834;28;20640;-74
2023/02/08 08:04:35;;;;;;;76.32;26.38;;;;;;;-3.15;100.00;103747.97;5272160;28;20116;-74
2023/02/08 08:07:06;;;;;;;51.35;24.48;;;;;;;-2.64;100.00;103744.16;5272085;28;20111;-74
2023/02/08 08:09:36;;;;;;;57.25;24.15;;;;;;;-2.35;100.00;103741.31;5286262;28;20063;-74
2023/02/08 08:12:07;;;;;;;48.83;20.50;;;;;;;-1.99;100.00;103731.34;5270670;28;20024;-74
2023/02/08 08:14:37;;;;;;;54.03;23.35;;;;;;;-1.59;100.00;103730.94;5274854;28;20111;-75
2023/02/08 08:17:07;;;;;;;55.03;23.50;;;;;;;-1.39;100.00;103730.69;5272151;28;20034;-74
2023/02/08 08:19:38;;;;;;;48.80;22.77;;;;;;;-1.08;100.00;103731.16;5275364;28;20396;-74
2023/02/08 08:22:09;;;;;;;52.20;23.80;;;;;;;-0.74;100.00;103734.19;5264887;28;20531;-74
2023/02/08 08:24:39;;;;;;;47.15;21.55;;;;;;;-0.39;100.00;103741.56;5277032;28;20016;-74
2023/02/08 08:27:10;;;;;;;41.42;21.63;;;;;;;0.05;100.00;103744.31;5271940;28;20095;-74
2023/02/08 08:29:40;;;;;;;44.17;23.15;;;;;;;0.19;100.00;103740.53;5285978;28;20490;-75
2023/02/08 08:32:11;;;;;;;44.60;21.77;;;;;;;0.31;100.00;103735.94;5264473;28;20472;-75
2023/02/08 08:34:41;;;;;;;47.97;21.48;;;;;;;0.38;100.00;103737.56;5279403;28;20034;-75
2023/02/08 08:37:11;;;;;;;43.67;22.30;;;;;;;0.50;100.00;103726.72;5289747;28;20107;-77
2023/02/08 08:39:42;;;;;;;53.47;22.38;;;;;;;0.63;100.00;103730.88;5290007;28;20068;-74
2023/02/08 08:42:12;;;;;;;54.88;23.75;;;;;;;0.60;100.00;103725.63;5280292;28;20020;-75
2023/02/08 08:44:43;;;;;;;45.42;22.05;;;;;;;0.81;100.00;103724.34;5268402;28;20126;-75
2023/02/08 08:47:14;;;;;;;43.53;21.60;;;;;;;1.07;100.00;103730.84;5268534;28;20430;-75
2023/02/08 08:49:44;;;;;;;44.97;22.05;;;;;;;1.35;100.00;103725.75;5268712;28;20066;-75
2023/02/08 08:52:15;;;;;;;36.08;18.75;;;;;;;1.59;100.00;103721.66;5250811;28;20477;-75
2023/02/08 08:54:46;;;;;;;41.58;20.20;;;;;;;1.85;100.00;103731.59;5274852;28;20028;-75
2023/02/08 08:57:16;;;;;;;39.58;20.83;;;;;;;1.95;100.00;103728.66;5275394;28;20030;-75
2023/02/08 08:59:47;;;;;;;40.05;20.45;;;;;;;2.27;100.00;103727.81;5268772;28;20474;-75
2023/02/08 09:02:17;;;;;;;42.97;20.00;;;;;;;2.62;100.00;103727.72;5282151;28;20069;-75
2023/02/08 09:04:48;;;;;;;39.20;19.33;;;;;;;2.98;100.00;103733.72;5277340;28;20030;-75
2023/02/08 09:07:18;;;;;;;37.63;18.75;;;;;;;3.43;100.00;103727.88;5289022;28;20110;-75
2023/02/08 09:09:48;;;;;;;46.60;19.58;;;;;;;3.81;100.00;103727.47;5279565;28;20128;-76
2023/02/08 09:12:19;;;;;;;37.25;18.95;;;;;;;4.22;100.00;103727.84;5268109;28;20020;-76
2023/02/08 09:14:49;;;;;;;37.65;18.83;;;;;;;4.31;100.00;103724.81;5268807;28;20051;-75
2023/02/08 09:17:20;;;;;;;28.42;16.58;;;;;;;4.37;100.00;103715.78;5267620;28;20047;-76
2023/02/08 09:19:50;;;;;;;37.40;18.15;;;;;;;4.18;100.00;103720.03;5280132;28;20027;-76
2023/02/08 09:22:21;;;;;;;33.63;17.45;;;;;;;4.02;100.00;103725.03;5275316;28;20020;-76
2023/02/08 09:24:52;;;;;;;31.50;17.70;;;;;;;4.44;100.00;103721.75;5289588;28;20023;-76
2023/02/08 09:27:23;;;;;;;29.70;16.42;;;;;;;4.78;100.00;103722.22;5274989;28;20023;-76
2023/02/08 09:29:53;;;;;;;31.67;16.40;;;;;;;4.99;100.00;103722.31;5274436;28;20031;-76
2023/02/08 09:32:24;;;;;;;30.90;16.90;;;;;;;5.53;100.00;103716.56;5268032;28;20095;-76
2023/02/08 09:34:56;;;;;;;35.22;17.30;;;;;;;5.75;100.00;103716.53;5267934;28;20043;-76
2023/02/08 09:37:28;;;;;;;29.42;16.63;;;;;;;6.17;100.00;103713.81;5267792;28;20385;-76
2023/02/08 09:39:59;;;;;;;28.35;14.50;;;;;;;6.01;100.00;103719.91;5271749;28;20036;-76
2023/02/08 09:42:39;;;;;;;31.33;14.68;;;;;;;6.19;100.00;103724.44;5277955;28;20362;-76
2023/02/08 09:45:29;;;;;;;27.40;14.70;;;;;;;6.40;100.00;103714.59;5273964;28;20019;-76
2023/02/08 09:48:25;;;;;;;33.22;14.98;;;;;;;6.57;100.00;103716.50;5274796;28;20059;-76
2023/02/08 09:51:02;;;;;;;27.48;15.32;;;;;;;6.46;100.00;103717.84;5275163;28;20456;-76
2023/02/08 09:53:39;;;;;;;26.83;14.18;;;;;;;6.53;100.00;103715.81;5267245;28;20031;-76
2023/02/08 09:56:14;;;;;;;22.20;13.82;;;;;;;6.94;100.00;103721.88;5270509;28;20047;-76
2023/02/08 09:58:50;;;;;;;22.45;12.93;;;;;;;7.09;100.00;103724.75;5276307;28;20028;-76
2023/02/08 10:01:25;;;;;;;24.00;13.45;;;;;;;7.14;100.00;103712.91;5280799;28;20024;-76
2023/02/08 10:04:02;;;;;;;22.50;12.60;;;;;;;6.99;100.00;103714.50;5280803;28;20115;-77
2023/02/08 10:06:32;;;;;;;26.92;14.68;;;;;;;7.39;100.00;103717.91;5276943;28;20477;-76
2023/02/08 10:09:06;;;;;;;21.85;13.30;;;;;;;7.62;100.00;103716.75;5271418;28;20035;-76
2023/02/08 10:11:56;;;;;;;22.77;13.13;;;;;;;7.64;100.00;103720.25;5267482;28;20465;-76
2023/02/08 10:15:02;;;;;;;22.77;11.77;;;;;;;7.55;100.00;103727.84;5267262;28;20065;-76
2023/02/08 10:17:52;;;;;;;25.08;12.68;;;;;;;7.55;100.00;103730.53;5266690;28;20477;-76
2023/02/08 10:20:31;;;;;;;25.02;12.88;;;;;;;7.72;100.00;103728.72;5266393;28;20765;-77
2023/02/08 10:23:26;;;;;;;20.65;12.50;;;;;;;7.61;100.00;103738.22;5266959;28;20092;-76
2023/02/08 10:26:16;;;;;;;28.35;12.32;;;;;;;7.48;100.00;103732.59;5266861;28;20103;-76
2023/02/08 10:29:06;;;;;;;21.27;12.40;;;;;;;7.24;100.00;103724.88;5271616;28;20016;-76
2023/02/08 10:31:59;;;;;;;20.85;11.88;;;;;;;6.85;100.00;103716.97;5271924;28;20035;-76
2023/02/08 10:34:45;;;;;;;21.33;11.02;;;;;;;6.79;100.00;103725.25;5266906;28;20329;-76
2023/02/08 10:37:20;;;;;;;18.98;9.65;;;;;;;6.40;100.00;103720.81;5274284;28;20039;-77
2023/02/08 10:39:51;;;;;;;18.45;9.52;;;;;;;6.39;100.00;103719.09;5287650;28;20133;-77
2023/02/08 10:42:24;;;;;;;21.50;10.50;;;;;;;6.14;100.00;103719.31;5259418;28;20050;-76
2023/02/08 10:45:06;;;;;;;15.90;9.68;;;;;;;6.12;100.00;103722.94;5266848;28;20024;-76
2023/02/08 10:47:54;;;;;;;17.35;8.75;;;;;;;6.25;100.00;103725.97;5265913;28;20026;-76
2023/02/08 10:50:42;;;;;;;18.02;8.82;;;;;;;6.40;100.00;103715.47;5277499;28;20469;-76
2023/02/08 10:53:16;;;;;;;18.35;8.68;;;;;;;6.38;99.41;103711.16;5266470;28;20443;-76
2023/02/08 10:55:48;;;;;;;13.90;7.32;;;;;;;6.53;97.16;103721.13;5266667;28;20331;-76
2023/02/08 10:58:23;;;;;;;16.05;6.85;;;;;;;6.47;91.39;103710.72;5285586;28;20561;-76
2023/02/08 11:00:54;;;;;;;12.27;6.65;;;;;;;6.51;88.31;103716.78;5270706;28;20674;-76
2023/02/08 11:03:27;;;;;;;10.98;6.07;;;;;;;6.65;86.63;103711.69;5266644;28;20032;-76
2023/02/08 11:05:57;;;;;;;10.30;5.35;;;;;;;6.48;74.37;103713.34;5266069;28;20062;-76
2023/02/08 11:08:28;;;;;;;13.73;6.15;;;;;;;6.59;79.15;103720.84;5259764;28;20054;-76
2023/02/08 11:11:04;;;;;;;10.93;5.97;;;;;;;6.74;80.13;103711.28;5280567;28;20036;-76
2023/02/08 11:13:40;;;;;;;10.60;5.60;;;;;;;6.90;83.66;103711.41;5279630;28;20053;-76
2023/02/08 11:16:18;;;;;;;16.80;8.32;;;;;;;6.92;74.43;103701.50;5266431;28;20373;-77
2023/02/08 11:19:17;;;;;;;11.30;5.75;;;;;;;7.05;71.29;103707.16;5265568;28;20032;-77
2023/02/08 11:21:51;;;;;;;8.98;5.15;;;;;;;7.00;65.34;103702.88;5266031;28;20047;-77
2023/02/08 11:24:27;;;;;;;12.82;5.88;;;;;;;7.07;64.01;103703.44;5265994;28;20103;-77
2023/02/08 11:27:00;;;;;;;9.98;5.60;;;;;;;7.21;68.32;103697.44;5269637;28;20027;-77
2023/02/08 11:29:30;;;;;;;12.88;5.30;;;;;;;7.25;65.18;103696.38;5286783;28;20528;-77
2023/02/08 11:32:14;;;;;;;12.35;5.05;;;;;;;7.18;59.20;103695.81;5273560;28;20102;-76
2023/02/08 11:34:45;;;;;;;11.30;5.85;;;;;;;7.24;61.58;103681.28;5272381;28;20028;-77
2023/02/08 11:37:22;;;;;;;9.27;5.10;;;;;;;7.34;64.82;103682.56;5266186;28;20415;-76
2023/02/08 11:39:55;;;;;;;10.98;5.57;;;;;;;7.39;64.32;103683.19;5278761;28;20090;-77